Time;durP1;ratioP1;P1;durP2;ratioP2;P2;SDS_P1;SDS_P2;PMS_P1;PMS_P2;Temp;Humidity;BMP_temperature;BMP_pressure;BME280_temperature;BME280_humidity;BME280_pressure;Samples;Min_cycle;Max_cycle;Signal;HPM_P1;HPM_P2
2023/10/17 00:02:53;;;;;;;10.83;8.77;;;;;;;;;;5102838;28;20203;-74
2023/10/17 00:05:23;;;;;;;11.27;9.40;;;;;;;;;;5109847;28;20208;-75
2023/10/17 00:07:50;;;;;;;10.43;8.40;;;;;;;;;;5101187;28;20223;-72
2023/10/17 00:10:18;;;;;;;11.53;9.57;;;;;;;;;;5105361;28;20651;-73
2023/10/17 00:12:51;;;;;;;15.60;10.47;;;;;;;;;;5109248;28;20256;-73
2023/10/17 00:15:28;;;;;;;15.43;11.70;;;;;;;;;;5086761;28;20700;-73
2023/10/17 00:18:03;;;;;;;14.87;10.73;;;;;;;;;;5102013;28;20265;-72
2023/10/17 00:20:37;;;;;;;16.23;11.87;;;;;;;;;;5115202;28;20207;-73
2023/10/17 00:23:06;;;;;;;13.47;10.60;;;;;;;;;;5090668;28;20212;-73
2023/10/17 00:25:35;;;;;;;14.47;10.50;;;;;;;;;;5081702;28;20207;-73
2023/10/17 00:28:02;;;;;;;15.07;11.13;;;;;;;;;;5075701;28;20724;-73
2023/10/17 00:30:30;;;;;;;13.35;10.60;;;;;;;;;;5067269;28;20649;-75
2023/10/17 00:32:58;;;;;;;13.47;10.77;;;;;;;;;;5063414;28;20579;-75
2023/10/17 00:35:36;;;;;;;15.37;11.63;;;;;;;;;;5065173;28;20217;-71
2023/10/17 00:38:07;;;;;;;15.07;11.10;;;;;;;;;;5085160;28;20225;-74
2023/10/17 00:40:53;;;;;;;13.23;10.43;;;;;;;;;;5085553;28;20579;-74
2023/10/17 00:43:20;;;;;;;11.10;9.10;;;;;;;;;;5066345;28;20266;-74
2023/10/17 00:45:47;;;;;;;12.40;10.17;;;;;;;;;;5077181;28;20209;-77
2023/10/17 00:48:26;;;;;;;11.67;9.57;;;;;;;;;;5080025;28;20247;-76
2023/10/17 00:51:00;;;;;;;14.27;10.47;;;;;;;;;;5077299;28;20303;-75
2023/10/17 00:53:28;;;;;;;14.40;9.73;;;;;;;;;;5072829;28;20204;-74
2023/10/17 00:55:56;;;;;;;10.90;9.47;;;;;;;;;;5072041;28;20209;-71
2023/10/17 00:58:24;;;;;;;13.17;9.90;;;;;;;;;;5073837;28;20248;-73
2023/10/17 01:01:15;;;;;;;15.00;10.50;;;;;;;;;;5074776;28;20292;-74
2023/10/17 01:03:45;;;;;;;13.17;10.13;;;;;;;;;;5070912;28;20290;-73
2023/10/17 01:09:07;;;;;;;14.50;10.20;;;;;;;;;;5081318;28;20220;-74
2023/10/17 01:11:38;;;;;;;12.77;9.97;;;;;;;;;;5073928;28;20772;-73
2023/10/17 01:14:05;;;;;;;12.70;9.97;;;;;;;;;;5074096;28;20212;-75
2023/10/17 01:16:36;;;;;;;16.70;10.03;;;;;;;;;;5072249;28;20214;-73
2023/10/17 01:19:04;;;;;;;13.57;9.90;;;;;;;;;;5054051;28;20286;-74
2023/10/17 01:21:32;;;;;;;11.00;9.03;;;;;;;;;;5080919;28;20197;-75
2023/10/17 01:24:06;;;;;;;12.03;8.83;;;;;;;;;;5092138;28;20341;-74
2023/10/17 01:26:37;;;;;;;12.47;9.40;;;;;;;;;;5090900;27;20244;-74
2023/10/17 01:29:11;;;;;;;11.30;8.97;;;;;;;;;;5091141;28;20224;-74
2023/10/17 01:31:44;;;;;;;12.20;9.50;;;;;;;;;;5091373;28;20201;-74
2023/10/17 01:34:12;;;;;;;13.47;8.87;;;;;;;;;;5092187;27;20770;-73
2023/10/17 01:36:40;;;;;;;12.13;9.07;;;;;;;;;;5089965;28;20664;-75
2023/10/17 01:39:08;;;;;;;13.00;9.70;;;;;;;;;;5078807;28;20237;-74
2023/10/17 01:41:38;;;;;;;13.20;10.17;;;;;;;;;;5078884;28;20255;-75
2023/10/17 01:44:08;;;;;;;13.73;10.03;;;;;;;;;;5095520;27;20201;-75
2023/10/17 01:46:38;;;;;;;12.87;9.93;;;;;;;;;;5099154;27;20212;-75
2023/10/17 01:49:12;;;;;;;12.60;9.40;;;;;;;;;;5097607;27;20225;-72
2023/10/17 01:51:44;;;;;;;12.20;8.83;;;;;;;;;;5095566;28;20269;-72
2023/10/17 01:54:16;;;;;;;9.87;8.23;;;;;;;;;;5098391;27;20213;-72
2023/10/17 01:56:50;;;;;;;10.30;8.53;;;;;;;;;;5102266;27;20706;-75
2023/10/17 01:59:21;;;;;;;11.77;8.43;;;;;;;;;;5099064;28;20239;-75
2023/10/17 02:01:48;;;;;;;9.00;7.97;;;;;;;;;;5098469;28;20193;-72
2023/10/17 02:04:18;;;;;;;10.83;8.10;;;;;;;;;;5091802;28;20196;-74
2023/10/17 02:06:50;;;;;;;10.43;7.50;;;;;;;;;;5094064;27;20527;-75
2023/10/17 02:11:53;;;;;;;7.43;6.63;;;;;;;;;;5093319;27;20209;-73
2023/10/17 02:14:21;;;;;;;6.97;6.27;;;;;;;;;;5099265;27;20257;-74
2023/10/17 02:16:51;;;;;;;7.40;6.17;;;;;;;;;;5094074;28;20201;-73
2023/10/17 02:19:24;;;;;;;7.90;6.37;;;;;;;;;;5074579;28;20821;-74
2023/10/17 02:21:54;;;;;;;8.57;6.93;;;;;;;;;;5094388;28;20265;-73
2023/10/17 02:24:22;;;;;;;8.37;6.63;;;;;;;;;;5102959;27;20245;-74
2023/10/17 02:26:55;;;;;;;6.73;5.97;;;;;;;;;;5095889;27;20254;-73
2023/10/17 02:29:26;;;;;;;9.07;6.47;;;;;;;;;;5098399;27;20231;-74
2023/10/17 02:31:54;;;;;;;8.50;6.33;;;;;;;;;;5078839;28;20209;-74
2023/10/17 02:34:23;;;;;;;10.47;7.43;;;;;;;;;;5097295;27;20298;-74
2023/10/17 02:36:50;;;;;;;13.37;7.43;;;;;;;;;;5078795;28;20215;-75
2023/10/17 02:39:20;;;;;;;9.83;7.50;;;;;;;;;;5099493;27;20255;-74
2023/10/17 02:41:57;;;;;;;10.27;7.63;;;;;;;;;;5083559;28;20239;-77
2023/10/17 02:44:25;;;;;;;10.17;7.63;;;;;;;;;;5102629;27;20192;-76
2023/10/17 02:46:58;;;;;;;10.53;8.27;;;;;;;;;;5101563;27;20230;-77
2023/10/17 02:49:27;;;;;;;10.90;7.90;;;;;;;;;;5098569;27;20779;-76
2023/10/17 02:51:55;;;;;;;12.03;9.73;;;;;;;;;;5100904;28;20839;-76
2023/10/17 02:54:27;;;;;;;10.90;8.23;;;;;;;;;;5099690;27;20220;-78
2023/10/17 02:56:54;;;;;;;10.57;8.77;;;;;;;;;;5094894;28;20232;-77
2023/10/17 02:59:22;;;;;;;9.63;8.27;;;;;;;;;;5101791;28;20678;-77
2023/10/17 03:01:53;;;;;;;11.87;8.87;;;;;;;;;;5093611;28;20213;-76
2023/10/17 03:04:27;;;;;;;10.20;7.80;;;;;;;;;;5094798;28;20205;-77
2023/10/17 03:06:55;;;;;;;11.70;8.77;;;;;;;;;;5097679;28;20206;-77
2023/10/17 03:11:51;;;;;;;12.17;9.03;;;;;;;;;;5104839;28;20204;-72
2023/10/17 03:17:05;;;;;;;15.90;11.27;;;;;;;;;;5106132;28;20257;-72
2023/10/17 03:19:33;;;;;;;15.83;11.43;;;;;;;;;;5101028;27;20227;-73
2023/10/17 03:22:16;;;;;;;17.17;11.27;;;;;;;;;;5085225;28;20217;-74
2023/10/17 03:24:44;;;;;;;13.07;10.63;;;;;;;;;;5084201;28;20201;-74
2023/10/17 03:27:23;;;;;;;15.37;11.10;;;;;;;;;;5098748;28;20193;-74
2023/10/17 03:29:51;;;;;;;24.30;17.70;;;;;;;;;;5099780;27;20668;-73
2023/10/17 03:32:23;;;;;;;19.60;15.67;;;;;;;;;;5101934;28;20200;-74
2023/10/17 03:34:56;;;;;;;18.80;14.20;;;;;;;;;;5102289;27;20211;-72
2023/10/17 03:40:00;;;;;;;21.90;14.37;;;;;;;;;;5100740;28;20225;-73
2023/10/17 03:45:13;;;;;;;21.60;13.87;;;;;;;;;;5109736;27;20203;-74
2023/10/17 03:47:40;;;;;;;19.93;13.17;;;;;;;;;;5100688;28;20196;-75
2023/10/17 03:50:08;;;;;;;16.07;11.77;;;;;;;;;;5103680;27;20208;-74
2023/10/17 03:52:36;;;;;;;18.13;12.50;;;;;;;;;;5081921;28;20579;-72
2023/10/17 03:55:10;;;;;;;17.00;12.53;;;;;;;;;;5093808;28;20254;-72
2023/10/17 03:57:52;;;;;;;18.43;13.50;;;;;;;;;;5080514;28;20231;-74
2023/10/17 04:00:25;;;;;;;19.27;12.53;;;;;;;;;;5107895;28;20219;-73
2023/10/17 04:02:53;;;;;;;17.47;12.60;;;;;;;;;;5100233;28;20272;-72
2023/10/17 04:05:23;;;;;;;16.27;12.50;;;;;;;;;;5103956;28;20218;-74
2023/10/17 04:07:52;;;;;;;17.00;13.07;;;;;;;;;;5102033;28;20216;-73
2023/10/17 04:10:20;;;;;;;19.40;13.03;;;;;;;;;;5097976;27;20686;-72
2023/10/17 04:15:34;;;;;;;19.77;13.57;;;;;;;;;;5098944;28;20676;-74
2023/10/17 04:18:02;;;;;;;19.13;13.60;;;;;;;;;;5082623;28;21235;-75
2023/10/17 04:20:36;;;;;;;19.73;14.00;;;;;;;;;;5092301;28;20232;-72
2023/10/17 04:23:05;;;;;;;19.90;15.07;;;;;;;;;;5097094;28;20213;-73
2023/10/17 04:25:37;;;;;;;20.23;15.23;;;;;;;;;;5098191;28;20253;-73
2023/10/17 04:28:05;;;;;;;20.37;13.83;;;;;;;;;;5099808;28;20268;-74
2023/10/17 04:30:35;;;;;;;19.50;14.57;;;;;;;;;;5100812;28;20617;-74
2023/10/17 04:33:19;;;;;;;17.63;13.60;;;;;;;;;;5100679;28;20269;-73
2023/10/17 04:35:47;;;;;;;20.10;13.30;;;;;;;;;;5106981;28;20200;-73
2023/10/17 04:38:27;;;;;;;18.30;12.23;;;;;;;;;;5106271;27;20362;-73
2023/10/17 04:43:44;;;;;;;16.90;12.57;;;;;;;;;;5103407;27;20709;-73
2023/10/17 04:46:12;;;;;;;16.83;12.57;;;;;;;;;;5079393;28;20228;-76
2023/10/17 04:48:46;;;;;;;16.00;11.70;;;;;;;;;;5099897;27;20311;-74
2023/10/17 04:51:31;;;;;;;16.97;11.83;;;;;;;;;;5101133;27;20343;-74
2023/10/17 04:54:09;;;;;;;18.33;12.07;;;;;;;;;;5083291;28;20667;-73
2023/10/17 04:59:51;;;;;;;17.13;10.73;;;;;;;;;;5106042;28;20236;-74
2023/10/17 06:17:22;;;;;;;21.67;13.33;;;;;;;;;;5102245;27;20562;-75
2023/10/17 06:19:49;;;;;;;19.77;13.93;;;;;;;;;;5102420;27;20232;-74
2023/10/17 06:25:18;;;;;;;20.10;14.20;;;;;;;;;;5091118;28;20204;-75
2023/10/17 06:30:34;;;;;;;24.00;16.53;;;;;;;;;;5104204;27;20205;-73
2023/10/17 06:33:17;;;;;;;26.27;17.17;;;;;;;;;;5102039;27;20286;-77
2023/10/17 06:35:45;;;;;;;32.87;20.63;;;;;;;;;;5090702;27;20202;-75
2023/10/17 06:38:16;;;;;;;36.47;20.87;;;;;;;;;;5109663;27;20223;-76
2023/10/17 06:40:51;;;;;;;36.67;21.80;;;;;;;;;;5096797;27;20449;-76
2023/10/17 06:43:27;;;;;;;34.47;22.10;;;;;;;;;;5100574;28;20204;-77
2023/10/17 06:46:00;;;;;;;35.30;21.47;;;;;;;;;;5099870;27;20675;-77
2023/10/17 06:48:34;;;;;;;33.27;20.57;;;;;;;;;;5107581;27;20226;-76
2023/10/17 06:53:56;;;;;;;33.47;20.30;;;;;;;;;;5107653;27;20588;-75
2023/10/17 06:56:38;;;;;;;32.53;19.93;;;;;;;;;;5105153;27;20250;-76
2023/10/17 06:59:41;;;;;;;32.87;20.17;;;;;;;;;;5085843;27;20247;-76
2023/10/17 07:02:34;;;;;;;28.67;19.00;;;;;;;;;;5097023;27;20208;-74
2023/10/17 07:05:01;;;;;;;29.87;18.63;;;;;;;;;;5098388;28;20215;-74
2023/10/17 07:07:39;;;;;;;30.13;20.17;;;;;;;;;;5079125;28;20225;-74
2023/10/17 07:10:16;;;;;;;30.50;19.90;;;;;;;;;;5088810;28;20224;-73
2023/10/17 07:12:50;;;;;;;28.53;18.53;;;;;;;;;;5087395;27;20200;-74
2023/10/17 07:15:25;;;;;;;26.30;18.37;;;;;;;;;;5095195;27;20203;-72
2023/10/17 07:18:43;;;;;;;33.37;19.63;;;;;;;;;;5098665;27;20224;-73
2023/10/17 07:23:32;;;;;;;27.10;18.43;;;;;;;;;;5097755;28;20212;-76
2023/10/17 07:26:01;;;;;;;26.50;18.93;;;;;;;;;;5086584;28;20201;-75
2023/10/17 07:28:29;;;;;;;30.97;19.67;;;;;;;;;;5090602;27;20307;-75
2023/10/17 07:30:58;;;;;;;31.17;20.30;;;;;;;;;;5082330;28;20218;-74
2023/10/17 07:33:25;;;;;;;27.30;19.17;;;;;;;;;;5091655;27;20209;-74
2023/10/17 07:35:59;;;;;;;29.27;19.23;;;;;;;;;;5095798;28;20298;-75
2023/10/17 07:38:28;;;;;;;26.50;18.20;;;;;;;;;;5087120;27;20889;-74
2023/10/17 07:40:58;;;;;;;27.27;19.13;;;;;;;;;;5093004;28;20240;-75
2023/10/17 07:43:30;;;;;;;28.03;19.40;;;;;;;;;;5094565;28;20402;-75
2023/10/17 07:46:06;;;;;;;28.13;18.40;;;;;;;;;;5097294;28;20204;-75
2023/10/17 07:48:34;;;;;;;27.33;18.87;;;;;;;;;;5096698;27;20763;-72
2023/10/17 07:51:04;;;;;;;25.27;18.10;;;;;;;;;;5090562;28;20212;-72
2023/10/17 07:53:32;;;;;;;27.03;19.17;;;;;;;;;;5093973;28;20497;-74
2023/10/17 07:56:13;;;;;;;29.13;19.50;;;;;;;;;;5092374;28;20210;-75
2023/10/17 07:58:42;;;;;;;21.63;16.80;;;;;;;;;;5098747;28;21679;-75
2023/10/17 08:01:16;;;;;;;23.47;17.30;;;;;;;;;;5095793;28;20598;-74
2023/10/17 08:03:54;;;;;;;26.57;17.23;;;;;;;;;;5098869;28;20296;-74
2023/10/17 08:06:22;;;;;;;23.20;17.60;;;;;;;;;;5092113;28;20227;-75
2023/10/17 08:08:50;;;;;;;23.43;17.30;;;;;;;;;;5094901;28;20229;-76
2023/10/17 08:11:26;;;;;;;24.97;17.90;;;;;;;;;;5105323;27;20296;-75
2023/10/17 08:14:03;;;;;;;27.23;17.67;;;;;;;;;;5076662;28;20574;-77
2023/10/17 08:16:32;;;;;;;25.87;17.70;;;;;;;;;;5092185;27;20253;-77
2023/10/17 08:19:12;;;;;;;27.93;19.03;;;;;;;;;;5088749;27;20817;-77
2023/10/17 08:24:27;;;;;;;24.83;17.63;;;;;;;;;;5097171;27;20204;-76
2023/10/17 08:29:42;;;;;;;24.10;17.40;;;;;;;;;;5096993;28;20772;-76
2023/10/17 08:32:29;;;;;;;26.13;18.23;;;;;;;;;;5068194;28;20227;-76
2023/10/17 08:34:59;;;;;;;23.33;16.83;;;;;;;;;;5089252;27;20200;-76
2023/10/17 08:37:28;;;;;;;22.97;16.83;;;;;;;;;;5063928;28;20665;-76
2023/10/17 08:39:57;;;;;;;23.83;18.23;;;;;;;;;;5093916;27;21046;-76
2023/10/17 08:42:30;;;;;;;21.40;15.90;;;;;;;;;;5071779;28;20192;-76
2023/10/17 08:44:59;;;;;;;24.70;18.07;;;;;;;;;;5088740;28;20283;-76
2023/10/17 08:47:30;;;;;;;22.53;16.53;;;;;;;;;;5075619;28;20290;-76
2023/10/17 08:50:04;;;;;;;22.63;16.93;;;;;;;;;;5074424;28;20295;-76
2023/10/17 08:52:35;;;;;;;22.00;16.47;;;;;;;;;;5090084;27;21246;-76
2023/10/17 08:55:03;;;;;;;24.23;17.90;;;;;;;;;;5093806;27;20269;-76
2023/10/17 08:57:37;;;;;;;22.20;16.10;;;;;;;;;;5093586;27;20205;-76
2023/10/17 09:02:35;;;;;;;21.87;16.80;;;;;;;;;;5089509;28;20324;-76
2023/10/17 09:05:13;;;;;;;21.33;15.97;;;;;;;;;;5091037;28;20582;-75
2023/10/17 09:07:44;;;;;;;21.00;15.43;;;;;;;;;;5090466;28;20218;-77
2023/10/17 09:10:43;;;;;;;19.83;15.73;;;;;;;;;;5068018;28;20205;-75
2023/10/17 09:15:49;;;;;;;19.80;15.70;;;;;;;;;;5090825;28;20207;-77
2023/10/17 09:18:31;;;;;;;20.83;15.80;;;;;;;;;;5076379;28;20729;-76
2023/10/17 09:21:03;;;;;;;19.70;15.47;;;;;;;;;;5096082;27;20598;-77
2023/10/17 09:23:31;;;;;;;19.37;15.10;;;;;;;;;;5091652;28;20212;-76
2023/10/17 09:26:00;;;;;;;18.33;14.50;;;;;;;;;;5086918;27;20219;-74
2023/10/17 09:28:28;;;;;;;20.53;14.73;;;;;;;;;;5072847;28;21836;-77
2023/10/17 09:31:02;;;;;;;19.23;15.20;;;;;;;;;;5095288;27;20208;-76
2023/10/17 09:33:31;;;;;;;20.13;14.83;;;;;;;;;;5089250;28;20204;-77
2023/10/17 09:36:00;;;;;;;17.27;13.67;;;;;;;;;;5071257;28;20578;-75
2023/10/17 09:38:27;;;;;;;17.97;14.63;;;;;;;;;;5089704;27;20295;-75
2023/10/17 09:41:01;;;;;;;18.73;13.97;;;;;;;;;;5096999;27;20224;-76
2023/10/17 09:43:45;;;;;;;17.53;13.90;;;;;;;;;;5075411;28;20206;-77
2023/10/17 09:46:13;;;;;;;16.67;12.93;;;;;;;;;;5091628;28;20203;-75
2023/10/17 09:48:42;;;;;;;15.97;12.77;;;;;;;;;;5097547;27;20269;-77
2023/10/17 09:51:35;;;;;;;16.20;13.53;;;;;;;;;;5088899;28;20208;-75
2023/10/17 09:54:04;;;;;;;16.50;13.03;;;;;;;;;;5078693;28;20208;-75
2023/10/17 09:56:35;;;;;;;17.27;12.87;;;;;;;;;;5085660;27;20196;-77
2023/10/17 09:59:03;;;;;;;16.83;13.70;;;;;;;;;;5090598;27;20224;-77
2023/10/17 10:01:31;;;;;;;15.90;12.20;;;;;;;;;;5093511;28;20216;-77
2023/10/17 10:04:01;;;;;;;16.70;13.47;;;;;;;;;;5097483;28;20313;-75
2023/10/17 10:06:30;;;;;;;16.77;12.90;;;;;;;;;;5103587;28;20196;-73
2023/10/17 10:09:01;;;;;;;15.20;12.40;;;;;;;;;;5114423;28;20224;-76
2023/10/17 10:11:48;;;;;;;13.57;11.53;;;;;;;;;;5114110;28;20253;-74
2023/10/17 10:14:16;;;;;;;13.47;11.53;;;;;;;;;;5114262;28;20192;-75
2023/10/17 10:16:53;;;;;;;13.13;11.17;;;;;;;;;;5114586;28;20204;-75
2023/10/17 10:19:42;;;;;;;13.53;11.53;;;;;;;;;;5113990;28;20311;-76
2023/10/17 10:22:11;;;;;;;14.60;11.63;;;;;;;;;;5095683;28;20235;-76
2023/10/17 10:24:39;;;;;;;13.83;10.97;;;;;;;;;;5114141;28;20215;-74
2023/10/17 10:27:15;;;;;;;11.20;9.93;;;;;;;;;;5113680;28;20287;-76
2023/10/17 10:29:44;;;;;;;11.47;9.70;;;;;;;;;;5113448;28;20439;-74
2023/10/17 10:32:33;;;;;;;15.97;12.17;;;;;;;;;;5113574;27;20711;-74
2023/10/17 10:35:03;;;;;;;11.87;10.67;;;;;;;;;;5134153;27;20203;-74
2023/10/17 10:37:32;;;;;;;12.40;10.10;;;;;;;;;;5133893;27;20207;-74
2023/10/17 10:40:16;;;;;;;13.87;10.50;;;;;;;;;;5134039;27;20234;-76
2023/10/17 10:42:51;;;;;;;13.73;9.80;;;;;;;;;;5115787;27;20221;-75
2023/10/17 10:45:40;;;;;;;11.70;10.30;;;;;;;;;;5128640;27;20195;-75
2023/10/17 10:48:21;;;;;;;12.43;10.17;;;;;;;;;;5112862;28;20228;-74
2023/10/17 10:50:52;;;;;;;11.70;9.30;;;;;;;;;;5113459;28;20211;-76
2023/10/17 10:53:20;;;;;;;12.93;10.20;;;;;;;;;;5098633;28;20204;-76
2023/10/17 10:55:55;;;;;;;11.40;9.43;;;;;;;;;;5081250;28;20239;-76
2023/10/17 10:58:23;;;;;;;11.97;9.73;;;;;;;;;;5089103;27;20726;-76
2023/10/17 11:00:51;;;;;;;12.40;9.37;;;;;;;;;;5087968;28;20271;-76
2023/10/17 11:03:19;;;;;;;11.07;9.37;;;;;;;;;;5093128;28;20200;-77
2023/10/17 11:05:53;;;;;;;10.87;8.83;;;;;;;;;;5094751;27;20280;-76
2023/10/17 11:08:23;;;;;;;11.63;9.17;;;;;;;;;;5094774;27;20228;-77
2023/10/17 11:10:51;;;;;;;10.50;8.67;;;;;;;;;;5090158;28;20575;-77
2023/10/17 11:13:19;;;;;;;9.90;8.70;;;;;;;;;;5084202;28;20215;-77
2023/10/17 11:15:47;;;;;;;11.43;9.53;;;;;;;;;;5075619;28;20205;-76
2023/10/17 11:18:19;;;;;;;10.88;9.10;;;;;;;;;;5084998;28;20285;-77
2023/10/17 11:20:54;;;;;;;10.65;9.32;;;;;;;;;;5101944;28;20227;-76
2023/10/17 11:23:26;;;;;;;12.70;10.32;;;;;;;;;;5097709;28;20208;-75
2023/10/17 11:25:55;;;;;;;13.68;10.82;;;;;;;;;;5089350;27;20200;-77
2023/10/17 11:28:25;;;;;;;13.63;10.83;;;;;;;;;;5099316;28;20283;-76
2023/10/17 11:31:04;;;;;;;12.18;10.02;;;;;;;;;;5092852;28;20586;-76
2023/10/17 11:33:45;;;;;;;11.13;9.95;;;;;;;;;;5076741;28;20215;-78
2023/10/17 11:36:16;;;;;;;10.55;9.35;;;;;;;;;;5098774;28;20672;-76
2023/10/17 11:38:46;;;;;;;12.98;10.23;;;;;;;;;;5099807;28;20252;-76
2023/10/17 11:41:19;;;;;;;11.40;10.00;;;;;;;;;;5091703;28;20601;-77
2023/10/17 11:43:53;;;;;;;15.23;10.82;;;;;;;;;;5099800;28;20250;-76
2023/10/17 11:46:30;;;;;;;12.88;9.90;;;;;;;;;;5080023;28;20200;-76
2023/10/17 11:49:50;;;;;;;11.25;9.55;;;;;;;;;;5094518;28;20232;-76
2023/10/17 11:52:10;;;;;;;11.20;10.07;;;;;;;;;;5095885;28;20547;-78
2023/10/17 11:55:04;;;;;;;12.15;10.10;;;;;;;;;;5097325;27;20586;-77
2023/10/17 11:57:33;;;;;;;12.53;10.57;;;;;;;;;;5093571;28;20294;-77
2023/10/17 12:00:39;;;;;;;12.00;9.83;;;;;;;;;;5084440;28;20193;-76
2023/10/17 12:03:07;;;;;;;11.63;10.18;;;;;;;;;;5094712;28;20343;-76
2023/10/17 12:05:38;;;;;;;9.70;8.70;;;;;;;;;;5099704;28;20308;-77
2023/10/17 12:08:05;;;;;;;11.80;9.52;;;;;;;;;;5104966;28;20375;-76
2023/10/17 12:10:36;;;;;;;11.88;9.85;;;;;;;;;;5100087;28;20648;-73
2023/10/17 12:13:07;;;;;;;14.02;9.60;;;;;;;;;;5095300;28;20690;-76
2023/10/17 12:15:35;;;;;;;12.98;10.18;;;;;;;;;;5096721;28;20204;-75
2023/10/17 12:18:02;;;;;;;11.80;10.30;;;;;;;;;;5089313;28;20200;-74
2023/10/17 12:20:30;;;;;;;13.82;9.85;;;;;;;;;;5069541;28;20984;-76
2023/10/17 12:22:59;;;;;;;12.88;9.68;;;;;;;;;;5097420;28;20231;-76
2023/10/17 12:25:32;;;;;;;11.38;9.30;;;;;;;;;;5093808;28;20933;-76
2023/10/17 12:28:02;;;;;;;11.30;9.50;;;;;;;;;;5101825;28;20236;-74
2023/10/17 12:30:35;;;;;;;11.98;9.50;;;;;;;;;;5092825;28;20217;-75
2023/10/17 12:33:05;;;;;;;12.13;10.07;;;;;;;;;;5093169;28;20653;-75
2023/10/17 12:35:33;;;;;;;13.65;9.65;;;;;;;;;;5101515;28;20219;-74
2023/10/17 12:38:14;;;;;;;11.05;9.10;;;;;;;;;;5087327;28;20556;-76
2023/10/17 12:40:42;;;;;;;10.90;8.48;;;;;;;;;;5097676;28;20210;-75
2023/10/17 12:43:11;;;;;;;10.85;9.35;;;;;;;;;;5098675;28;20673;-75
2023/10/17 12:45:39;;;;;;;10.10;8.93;;;;;;;;;;5097529;28;20620;-74
2023/10/17 12:48:11;;;;;;;10.60;9.30;;;;;;;;;;5096885;28;20633;-73
2023/10/17 12:50:48;;;;;;;12.07;9.75;;;;;;;;;;5093652;28;20215;-76
2023/10/17 12:53:18;;;;;;;10.90;9.80;;;;;;;;;;5094961;28;20197;-76
2023/10/17 12:55:45;;;;;;;10.15;9.15;;;;;;;;;;5103619;27;20201;-75
2023/10/17 12:58:22;;;;;;;12.13;9.48;;;;;;;;;;5087128;28;20227;-73
2023/10/17 13:00:52;;;;;;;10.20;9.10;;;;;;;;;;5105846;28;20704;-75
2023/10/17 13:03:19;;;;;;;13.25;9.93;;;;;;;;;;5098685;28;20226;-74
2023/10/17 13:05:48;;;;;;;11.73;10.02;;;;;;;;;;5098292;28;20212;-74
2023/10/17 13:08:15;;;;;;;10.55;9.38;;;;;;;;;;5110745;27;20248;-73
2023/10/17 13:10:43;;;;;;;12.27;10.73;;;;;;;;;;5103316;28;20207;-75
2023/10/17 13:13:11;;;;;;;12.38;11.18;;;;;;;;;;5098476;27;21271;-76
2023/10/17 13:15:38;;;;;;;14.52;11.48;;;;;;;;;;5097954;28;20200;-74
2023/10/17 13:18:07;;;;;;;12.45;11.15;;;;;;;;;;5087294;28;20225;-75
2023/10/17 13:20:35;;;;;;;13.88;11.93;;;;;;;;;;5088371;28;20200;-74
2023/10/17 13:23:23;;;;;;;18.02;14.25;;;;;;;;;;5082521;28;20347;-76
2023/10/17 13:25:50;;;;;;;17.08;13.07;;;;;;;;;;5102937;28;20262;-76
2023/10/17 13:28:17;;;;;;;18.77;16.02;;;;;;;;;;5100646;28;20227;-75
2023/10/17 13:30:48;;;;;;;18.95;14.90;;;;;;;;;;5097936;28;20605;-74
2023/10/17 13:33:15;;;;;;;14.65;13.13;;;;;;;;;;5102046;28;20250;-76
2023/10/17 13:35:44;;;;;;;15.07;13.40;;;;;;;;;;5098520;28;20251;-75
2023/10/17 13:38:11;;;;;;;17.58;14.15;;;;;;;;;;5088280;28;20220;-73
2023/10/17 13:40:38;;;;;;;14.98;13.48;;;;;;;;;;5086022;27;20205;-74
2023/10/17 13:43:07;;;;;;;14.70;13.23;;;;;;;;;;5100891;27;20220;-74
2023/10/17 13:45:41;;;;;;;13.88;12.40;;;;;;;;;;5090966;27;20200;-73
2023/10/17 13:48:09;;;;;;;15.30;13.10;;;;;;;;;;5103784;27;20235;-75
2023/10/17 13:50:37;;;;;;;13.32;12.00;;;;;;;;;;5095875;27;20283;-75
2023/10/17 13:53:09;;;;;;;14.45;12.07;;;;;;;;;;5103175;28;20204;-78
2023/10/17 13:55:38;;;;;;;13.82;12.13;;;;;;;;;;5082510;28;20231;-76
2023/10/17 13:58:05;;;;;;;13.43;12.02;;;;;;;;;;5083711;28;20229;-76
2023/10/17 14:00:51;;;;;;;13.68;12.30;;;;;;;;;;5098094;28;20568;-77
2023/10/17 14:03:21;;;;;;;15.45;12.15;;;;;;;;;;5097576;28;20226;-78
2023/10/17 14:05:50;;;;;;;13.45;12.15;;;;;;;;;;5093868;28;20204;-78
2023/10/17 14:08:18;;;;;;;13.75;12.43;;;;;;;;;;5077762;28;20615;-78
2023/10/17 14:10:48;;;;;;;13.43;12.02;;;;;;;;;;5092046;28;20224;-77
2023/10/17 14:13:20;;;;;;;14.40;12.50;;;;;;;;;;5082939;28;20226;-76
2023/10/17 14:15:49;;;;;;;14.13;12.63;;;;;;;;;;5105052;27;20204;-77
2023/10/17 14:18:29;;;;;;;14.57;11.65;;;;;;;;;;5069391;28;20257;-75
2023/10/17 14:21:06;;;;;;;13.70;12.30;;;;;;;;;;5088009;28;20200;-76
2023/10/17 14:23:45;;;;;;;13.85;12.07;;;;;;;;;;5070752;28;20219;-76
2023/10/17 14:26:15;;;;;;;40.63;33.20;;;;;;;;;;5086898;27;20288;-77
2023/10/17 14:28:43;;;;;;;16.35;13.75;;;;;;;;;;5087420;28;20597;-76
2023/10/17 14:31:11;;;;;;;14.35;11.70;;;;;;;;;;5094365;28;20196;-77
2023/10/17 14:33:38;;;;;;;13.18;11.77;;;;;;;;;;5090669;27;20295;-76
2023/10/17 14:36:09;;;;;;;13.80;12.27;;;;;;;;;;5092110;28;20209;-77
2023/10/17 14:38:37;;;;;;;16.00;12.45;;;;;;;;;;5087931;28;20266;-77
2023/10/17 14:41:08;;;;;;;15.10;12.80;;;;;;;;;;5093362;28;20291;-77
2023/10/17 14:43:35;;;;;;;13.18;11.68;;;;;;;;;;5091445;28;20598;-75
2023/10/17 14:46:03;;;;;;;14.13;12.50;;;;;;;;;;5088528;28;20201;-76
2023/10/17 14:48:36;;;;;;;14.40;12.90;;;;;;;;;;5084142;27;20311;-76
2023/10/17 14:51:04;;;;;;;13.95;12.23;;;;;;;;;;5068850;28;20204;-76
2023/10/17 14:53:31;;;;;;;13.00;11.63;;;;;;;;;;5091941;27;20216;-76
2023/10/17 14:56:16;;;;;;;13.88;11.75;;;;;;;;;;5095198;27;20208;-77
2023/10/17 14:58:46;;;;;;;14.85;12.43;;;;;;;;;;5075351;28;20662;-76
2023/10/17 15:01:14;;;;;;;14.05;12.60;;;;;;;;;;5095098;28;20647;-76
2023/10/17 15:03:42;;;;;;;16.42;13.82;;;;;;;;;;5098601;28;20252;-76
2023/10/17 15:06:09;;;;;;;13.48;12.05;;;;;;;;;;5102899;27;20751;-76
2023/10/17 15:08:37;;;;;;;12.90;11.65;;;;;;;;;;5102318;27;20223;-75
2023/10/17 15:11:10;;;;;;;15.15;12.68;;;;;;;;;;5086073;28;20609;-76
2023/10/17 15:13:38;;;;;;;16.63;13.27;;;;;;;;;;5095857;27;20208;-76
2023/10/17 15:16:15;;;;;;;15.48;13.77;;;;;;;;;;5079703;27;20238;-75
2023/10/17 15:18:44;;;;;;;17.70;14.88;;;;;;;;;;5094513;27;20299;-77
2023/10/17 15:21:12;;;;;;;15.73;14.05;;;;;;;;;;5105091;27;20288;-75
2023/10/17 15:23:46;;;;;;;15.98;13.88;;;;;;;;;;5079707;28;20334;-76
2023/10/17 15:26:13;;;;;;;17.75;15.68;;;;;;;;;;5103285;27;20250;-77
2023/10/17 15:28:45;;;;;;;19.40;15.73;;;;;;;;;;5098479;28;20230;-78
2023/10/17 15:31:14;;;;;;;18.75;16.67;;;;;;;;;;5099329;27;20245;-75
2023/10/17 15:33:42;;;;;;;17.63;15.43;;;;;;;;;;5100226;27;20604;-74
2023/10/17 15:36:13;;;;;;;17.43;15.27;;;;;;;;;;5097779;28;20620;-75
2023/10/17 15:38:41;;;;;;;19.52;16.45;;;;;;;;;;5098629;28;20224;-75
2023/10/17 15:41:09;;;;;;;23.98;17.13;;;;;;;;;;5107708;27;20762;-74
2023/10/17 15:43:36;;;;;;;19.30;17.20;;;;;;;;;;5110118;27;20234;-73
2023/10/17 15:46:04;;;;;;;22.67;18.20;;;;;;;;;;5107201;28;20196;-74
2023/10/17 15:48:32;;;;;;;21.77;17.97;;;;;;;;;;5104673;28;20283;-72
2023/10/17 15:51:00;;;;;;;18.03;16.10;;;;;;;;;;5099689;28;20288;-75
2023/10/17 15:53:28;;;;;;;19.20;16.93;;;;;;;;;;5099714;28;20212;-74
2023/10/17 15:55:56;;;;;;;20.53;16.60;;;;;;;;;;5090375;28;20203;-73
2023/10/17 15:58:25;;;;;;;20.57;16.10;;;;;;;;;;5081861;28;20224;-73
2023/10/17 16:00:54;;;;;;;18.70;15.63;;;;;;;;;;5100195;28;20197;-73
2023/10/17 16:03:23;;;;;;;20.67;16.27;;;;;;;;;;5106574;28;20703;-74
2023/10/17 16:05:51;;;;;;;18.37;15.77;;;;;;;;;;5083601;28;20200;-73
2023/10/17 16:08:19;;;;;;;18.00;15.50;;;;;;;;;;5108277;28;20696;-73
2023/10/17 16:10:46;;;;;;;17.87;15.10;;;;;;;;;;5109185;28;20677;-75
2023/10/17 16:13:14;;;;;;;23.83;18.87;;;;;;;;;;5080989;28;20196;-73
2023/10/17 16:15:41;;;;;;;19.10;16.50;;;;;;;;;;5102416;28;20250;-74
2023/10/17 16:18:08;;;;;;;18.73;16.30;;;;;;;;;;5103473;28;20219;-74
2023/10/17 16:20:41;;;;;;;19.63;16.43;;;;;;;;;;5103692;28;20208;-75
2023/10/17 16:23:08;;;;;;;20.47;16.33;;;;;;;;;;5099380;28;20228;-74
2023/10/17 16:25:39;;;;;;;23.90;17.13;;;;;;;;;;5108314;28;20276;-73
2023/10/17 16:28:07;;;;;;;18.67;16.10;;;;;;;;;;5096144;28;20224;-76
2023/10/17 16:30:34;;;;;;;20.37;16.70;;;;;;;;;;5104417;27;20834;-74
2023/10/17 16:33:03;;;;;;;21.27;15.67;;;;;;;;;;5108220;28;20240;-74
2023/10/17 16:35:32;;;;;;;19.50;16.87;;;;;;;;;;5113043;27;20209;-75
2023/10/17 16:38:00;;;;;;;21.73;16.33;;;;;;;;;;5104982;27;20212;-74
2023/10/17 16:40:27;;;;;;;18.90;16.33;;;;;;;;;;5105927;28;20204;-73
2023/10/17 16:42:54;;;;;;;25.60;19.07;;;;;;;;;;5106406;27;20215;-73
2023/10/17 16:45:21;;;;;;;19.70;17.37;;;;;;;;;;5102316;28;20211;-74
2023/10/17 16:47:50;;;;;;;17.93;16.03;;;;;;;;;;5107840;27;20292;-74
2023/10/17 16:50:18;;;;;;;21.87;17.23;;;;;;;;;;5086921;28;20228;-73